createdAt,value
2023-01-19T05:01:19.013Z,29.06
2023-01-19T05:03:45.989Z,29.07
2023-01-19T05:06:12.781Z,29.18
2023-01-19T05:08:41.256Z,29.44
2023-01-19T05:11:08.292Z,29.14
2023-01-19T05:13:35.440Z,29.24
2023-01-19T05:16:02.497Z,29.36
2023-01-19T05:18:36.721Z,29.33
2023-01-19T05:21:04.570Z,29.58
2023-01-19T05:23:33.032Z,29.55
2023-01-19T05:26:03.269Z,29.57
2023-01-19T05:28:30.165Z,29.61
2023-01-19T05:30:56.997Z,29.73
2023-01-19T05:33:24.863Z,29.74
2023-01-19T05:35:52.429Z,29.73
2023-01-19T05:38:29.309Z,29.73
2023-01-19T05:41:00.922Z,30.17
2023-01-19T05:43:27.945Z,29.81
2023-01-19T05:45:55.721Z,29.42
2023-01-19T05:48:22.425Z,29.46
2023-01-19T05:50:49.649Z,29.65
2023-01-19T05:53:17.034Z,29.47
2023-01-19T05:55:45.473Z,29.72
2023-01-19T05:58:13.503Z,29.87
2023-01-19T06:00:40.262Z,29.79
2023-01-19T06:03:07.090Z,30.05
2023-01-19T06:05:38.007Z,29.87
2023-01-19T06:08:05.498Z,30.06
2023-01-19T06:10:32.870Z,29.72
2023-01-19T06:12:59.876Z,30.11
2023-01-19T06:15:26.796Z,29.92
2023-01-19T06:17:53.891Z,29.93
2023-01-19T06:20:21.131Z,30.21
2023-01-19T06:22:48.088Z,30.03
2023-01-19T06:25:15.112Z,30.07
2023-01-19T06:27:45.322Z,30.00
2023-01-19T06:30:12.895Z,30.02
2023-01-19T06:32:40.470Z,29.69
2023-01-19T06:35:08.657Z,30.05
2023-01-19T06:37:36.442Z,30.38
2023-01-19T06:40:03.682Z,30.11
2023-01-19T06:42:30.699Z,30.31
2023-01-19T06:44:57.645Z,30.20
2023-01-19T06:47:24.338Z,30.36
2023-01-19T06:49:53.914Z,30.10
2023-01-19T06:52:20.746Z,29.87
2023-01-19T06:54:47.612Z,30.29
2023-01-19T06:57:16.782Z,30.30
2023-01-19T06:59:44.587Z,30.28
2023-01-19T07:02:26.105Z,30.19
2023-01-19T07:04:56.541Z,30.17
2023-01-19T07:07:24.202Z,30.38
2023-01-19T07:09:53.766Z,30.26
2023-01-19T07:12:22.933Z,30.50
2023-01-19T07:14:51.421Z,30.24
2023-01-19T07:17:18.325Z,30.12
2023-01-19T07:19:45.773Z,30.34
2023-01-19T07:22:13.132Z,30.15
2023-01-19T07:24:39.779Z,30.41
2023-01-19T07:27:06.486Z,30.38
2023-01-19T07:29:33.252Z,30.64
2023-01-19T07:32:01.476Z,30.44
2023-01-19T07:34:28.185Z,30.40
2023-01-19T07:36:56.104Z,30.22
2023-01-19T07:39:23.532Z,30.36
2023-01-19T07:41:50.283Z,30.28
2023-01-19T07:44:17.038Z,30.43
2023-01-19T07:46:45.739Z,30.27
2023-01-19T07:49:13.527Z,30.45
2023-01-19T07:51:40.173Z,30.42
2023-01-19T07:54:09.940Z,30.68
2023-01-19T07:56:36.615Z,30.57
2023-01-19T07:59:04.123Z,30.53
2023-01-19T08:01:32.573Z,30.33
2023-01-19T08:04:00.301Z,30.40
2023-01-19T08:06:30.254Z,30.28
2023-01-19T08:08:56.980Z,30.30
2023-01-19T08:11:23.912Z,30.38
2023-01-19T08:13:51.287Z,30.55
2023-01-19T08:16:18.154Z,30.36
2023-01-19T08:18:50.116Z,30.57
2023-01-19T08:21:17.610Z,30.48
2023-01-19T08:23:45.977Z,30.43
2023-01-19T08:26:28.319Z,30.30
2023-01-19T08:28:57.502Z,30.42
2023-01-19T08:31:25.014Z,30.44
2023-01-19T08:33:52.152Z,30.39
2023-01-19T08:36:22.627Z,30.48
2023-01-19T08:38:50.053Z,30.42
2023-01-19T08:41:17.411Z,30.39
2023-01-19T08:43:47.827Z,30.90
2023-01-19T08:46:18.738Z,31.32
2023-01-19T08:48:46.048Z,32.15
2023-01-19T08:51:12.951Z,31.34
2023-01-19T08:53:39.920Z,31.58
2023-01-19T08:56:12.334Z,31.29
2023-01-19T08:58:43.339Z,31.22
2023-01-19T09:01:10.909Z,31.15
2023-01-19T09:03:37.608Z,30.96
2023-01-19T09:06:08.031Z,31.04
2023-01-19T09:08:35.013Z,30.96
2023-01-19T09:11:02.138Z,30.76
2023-01-19T09:13:28.890Z,31.08
2023-01-19T09:15:55.735Z,30.94
2023-01-19T09:18:22.569Z,30.94
2023-01-19T09:20:49.853Z,30.81
2023-01-19T09:23:19.288Z,30.85
2023-01-19T09:25:51.442Z,30.93
2023-01-19T09:28:18.216Z,30.94
2023-01-19T09:30:45.164Z,30.81
2023-01-19T09:33:16.271Z,30.81
2023-01-19T09:35:43.321Z,30.73
2023-01-19T09:38:10.554Z,30.86
2023-01-19T09:40:58.315Z,30.55
2023-01-19T09:43:34.102Z,30.35
2023-01-19T09:46:02.690Z,30.51
2023-01-19T09:48:51.516Z,30.67
2023-01-19T09:51:19.623Z,30.78
2023-01-19T09:53:53.442Z,30.64
2023-01-19T09:56:20.459Z,30.65
2023-01-19T09:58:48.830Z,30.68
2023-01-19T10:01:40.100Z,30.70
2023-01-19T10:04:22.335Z,30.88
2023-01-19T10:06:49.479Z,31.03
2023-01-19T10:09:47.804Z,30.67
2023-01-19T10:12:20.408Z,30.81
2023-01-19T10:14:53.532Z,30.65
2023-01-19T10:17:33.151Z,30.75
2023-01-19T10:19:59.830Z,30.75
2023-01-19T10:22:27.705Z,30.68
2023-01-19T10:24:59.527Z,30.83
2023-01-19T10:27:31.478Z,30.46
2023-01-19T10:30:00.840Z,30.87
2023-01-19T10:32:33.373Z,31.01
2023-01-19T10:35:01.175Z,30.86
2023-01-19T10:37:27.825Z,31.00
2023-01-19T10:40:15.654Z,30.83
2023-01-19T10:42:42.387Z,31.28
2023-01-19T10:45:23.073Z,32.17
2023-01-19T10:47:50.524Z,31.97
2023-01-19T10:50:42.468Z,31.55
2023-01-19T10:53:20.948Z,31.30
2023-01-19T10:55:48.056Z,31.42
2023-01-19T10:58:30.534Z,31.05
2023-01-19T11:00:57.708Z,31.24
2023-01-19T11:03:28.120Z,31.29
2023-01-19T11:06:16.582Z,31.38
2023-01-19T11:08:45.798Z,31.37
2023-01-19T11:11:13.568Z,31.46
2023-01-19T11:13:42.257Z,31.41
2023-01-19T11:16:25.692Z,31.32
2023-01-19T11:18:53.069Z,31.42
2023-01-19T11:21:21.986Z,31.36
2023-01-19T11:23:51.185Z,31.32
2023-01-19T11:26:31.639Z,31.17
2023-01-19T11:28:59.780Z,31.68
2023-01-19T11:31:51.638Z,31.43
2023-01-19T11:34:38.618Z,31.45
2023-01-19T11:37:20.888Z,31.72
2023-01-19T11:39:49.424Z,31.84
2023-01-19T11:42:16.211Z,31.55
2023-01-19T11:45:16.177Z,31.79
2023-01-19T11:47:56.807Z,32.18
2023-01-19T11:50:25.171Z,31.86
2023-01-19T11:53:06.980Z,32.05
2023-01-19T11:55:40.146Z,31.99
2023-01-19T11:58:07.406Z,32.33
2023-01-19T12:00:36.149Z,32.07
2023-01-19T12:03:26.134Z,31.55
2023-01-19T12:05:55.094Z,31.96
2023-01-19T12:08:27.057Z,32.08
2023-01-19T12:10:54.560Z,31.96
2023-01-19T12:13:26.398Z,31.84
2023-01-19T12:15:59.869Z,32.73
2023-01-19T12:18:33.541Z,32.27
2023-01-19T12:21:02.864Z,32.10
2023-01-19T12:23:52.065Z,32.15
2023-01-19T12:26:30.707Z,32.42
2023-01-19T12:29:01.659Z,32.64
2023-01-19T12:31:29.311Z,32.76
2023-01-19T12:33:58.824Z,32.70
2023-01-19T12:36:33.302Z,32.45
2023-01-19T12:39:20.653Z,27.58
2023-01-19T12:41:48.312Z,24.82
2023-01-19T12:44:20.599Z,24.25
2023-01-19T12:46:52.198Z,23.35
2023-01-19T12:49:30.489Z,24.05
2023-01-19T12:52:28.168Z,24.60
2023-01-19T12:54:54.869Z,24.88
2023-01-19T12:57:34.284Z,24.70
2023-01-19T13:00:22.159Z,24.54
2023-01-19T13:02:50.302Z,24.48
2023-01-19T13:05:33.002Z,24.47
2023-01-19T13:08:03.271Z,24.85
2023-01-19T13:11:05.677Z,24.92
2023-01-19T13:13:46.397Z,25.08
2023-01-19T13:16:19.243Z,25.28
2023-01-19T13:18:55.229Z,25.48
2023-01-19T13:21:36.410Z,25.57
2023-01-19T13:24:09.298Z,25.62
2023-01-19T13:27:14.954Z,26.12
2023-01-19T13:29:42.069Z,25.65
2023-01-19T13:32:17.768Z,26.13
2023-01-19T13:34:46.593Z,26.27
2023-01-19T13:37:16.652Z,26.40
2023-01-19T13:39:46.319Z,26.69
2023-01-19T13:42:40.093Z,26.57
2023-01-19T13:45:38.012Z,26.68
2023-01-19T13:48:08.768Z,26.80
2023-01-19T13:50:37.435Z,26.75
2023-01-19T13:53:17.827Z,26.96
2023-01-19T13:55:45.062Z,27.51
2023-01-19T13:58:22.502Z,27.28
2023-01-19T14:00:50.350Z,26.87
2023-01-19T14:03:21.398Z,27.27
2023-01-19T14:05:50.578Z,27.56
2023-01-19T14:08:19.963Z,27.52
2023-01-19T14:11:03.610Z,27.34
2023-01-19T14:13:34.673Z,27.53
2023-01-19T14:16:07.649Z,27.54
2023-01-19T14:18:35.654Z,27.52
2023-01-19T14:21:14.667Z,27.59
2023-01-19T14:23:51.781Z,27.38
2023-01-19T14:26:37.371Z,26.86
2023-01-19T14:29:10.054Z,27.15
2023-01-19T14:31:48.056Z,27.19
2023-01-19T14:34:34.132Z,27.84
2023-01-19T14:37:26.286Z,28.03
2023-01-19T14:40:04.818Z,30.17
2023-01-19T14:42:54.525Z,28.36
2023-01-19T14:45:23.807Z,28.75
2023-01-19T14:48:22.030Z,28.00
2023-01-19T14:51:02.449Z,26.86
2023-01-19T14:53:30.182Z,23.21
2023-01-19T14:55:59.423Z,22.21
2023-01-19T14:58:27.658Z,22.61
2023-01-19T15:00:55.902Z,23.62
2023-01-19T15:03:31.902Z,24.17
2023-01-19T15:06:20.435Z,25.28
2023-01-19T15:08:50.169Z,24.96
2023-01-19T15:11:27.868Z,25.23
2023-01-19T15:13:55.735Z,25.18
2023-01-19T15:16:23.958Z,25.30
2023-01-19T15:18:51.560Z,25.35
2023-01-19T15:21:20.153Z,25.56
2023-01-19T15:23:47.682Z,25.61
2023-01-19T15:26:18.373Z,25.78
2023-01-19T15:28:47.004Z,25.77
2023-01-19T15:31:19.814Z,25.69
2023-01-19T15:33:46.625Z,25.72
2023-01-19T15:36:18.224Z,25.80
2023-01-19T15:38:46.235Z,26.01
2023-01-19T15:41:24.646Z,25.97
2023-01-19T15:43:51.605Z,26.43
2023-01-19T15:46:21.718Z,26.24
2023-01-19T15:48:51.698Z,26.21
2023-01-19T15:51:20.059Z,26.30
2023-01-19T15:53:49.016Z,26.62
2023-01-19T15:56:27.309Z,26.42
2023-01-19T15:58:54.504Z,26.33
2023-01-19T16:01:22.775Z,26.59
2023-01-19T16:03:50.081Z,26.45
2023-01-19T16:06:18.314Z,26.66
2023-01-19T16:08:45.257Z,26.52
2023-01-19T16:11:13.676Z,26.09
2023-01-19T16:13:40.657Z,25.93
2023-01-19T16:16:21.655Z,25.93
2023-01-19T16:18:49.273Z,26.42
2023-01-19T16:21:21.410Z,26.25
2023-01-19T16:23:50.060Z,26.23
2023-01-19T16:26:28.769Z,26.59
2023-01-19T16:29:00.734Z,26.59
2023-01-19T16:31:28.313Z,26.52
2023-01-19T16:33:55.434Z,26.80
2023-01-19T16:36:27.642Z,26.66
2023-01-19T16:38:58.071Z,26.56
2023-01-19T16:41:27.429Z,26.95
2023-01-19T16:43:54.847Z,26.89
2023-01-19T16:46:25.619Z,27.03
2023-01-19T16:48:52.755Z,27.04
2023-01-19T16:51:20.132Z,26.91
2023-01-19T16:53:48.035Z,27.09
2023-01-19T16:56:15.092Z,26.97
2023-01-19T16:58:41.968Z,27.08
2023-01-19T17:01:13.034Z,27.35
2023-01-19T17:03:40.506Z,27.42
2023-01-19T17:06:11.999Z,27.29
2023-01-19T17:08:38.916Z,27.17
2023-01-19T17:11:11.613Z,27.34
2023-01-19T17:13:38.872Z,27.14
2023-01-19T17:16:09.383Z,27.33
2023-01-19T17:18:39.034Z,27.36
2023-01-19T17:21:07.729Z,27.41
2023-01-19T17:23:35.209Z,27.45
2023-01-19T17:26:02.275Z,27.73
2023-01-19T17:28:28.932Z,27.80
2023-01-19T17:31:11.070Z,28.20
2023-01-19T17:33:38.633Z,27.92
2023-01-19T17:36:09.207Z,28.18
2023-01-19T17:38:42.290Z,28.23
2023-01-19T17:41:16.939Z,29.01
2023-01-19T17:43:43.913Z,29.98
2023-01-19T17:46:11.972Z,30.29
2023-01-19T17:48:39.021Z,30.21
2023-01-19T17:51:12.821Z,30.62
2023-01-19T17:53:40.555Z,29.44
2023-01-19T17:56:10.731Z,29.28
2023-01-19T17:58:38.738Z,29.11
2023-01-19T18:01:15.137Z,29.02
2023-01-19T18:03:42.449Z,29.22
2023-01-19T18:06:09.916Z,29.03
2023-01-19T18:08:40.064Z,28.68
2023-01-19T18:11:06.943Z,28.97
2023-01-19T18:13:33.683Z,28.62
2023-01-19T18:16:01.419Z,28.71
2023-01-19T18:18:29.177Z,28.91
2023-01-19T18:21:03.093Z,28.60
2023-01-19T18:23:30.000Z,28.55
2023-01-19T18:26:03.575Z,28.70
2023-01-19T18:28:32.565Z,28.86
2023-01-19T18:30:59.903Z,28.45
2023-01-19T18:33:27.885Z,28.72
2023-01-19T18:35:54.973Z,28.71
2023-01-19T18:38:22.473Z,28.45
2023-01-19T18:40:49.341Z,28.51
2023-01-19T18:43:17.250Z,28.80
2023-01-19T18:45:45.374Z,28.63
2023-01-19T18:48:14.467Z,28.72
2023-01-19T18:50:43.057Z,28.71
2023-01-19T18:53:10.522Z,28.95
2023-01-19T18:55:39.031Z,29.13
2023-01-19T18:58:07.105Z,28.73
2023-01-19T19:00:34.048Z,29.07
2023-01-19T19:03:01.430Z,28.75
2023-01-19T19:05:28.560Z,28.97
2023-01-19T19:07:55.955Z,29.12
2023-01-19T19:10:22.791Z,29.07
2023-01-19T19:12:49.782Z,29.03
2023-01-19T19:15:16.846Z,28.96
2023-01-19T19:17:43.809Z,29.15
2023-01-19T19:20:13.665Z,28.89
2023-01-19T19:22:40.796Z,29.11
2023-01-19T19:25:08.149Z,29.01
2023-01-19T19:27:35.727Z,28.83
2023-01-19T19:30:03.635Z,28.79
2023-01-19T19:32:53.992Z,28.94
2023-01-19T19:35:21.494Z,29.42
2023-01-19T19:37:51.753Z,29.13
2023-01-19T19:40:18.600Z,28.90
2023-01-19T19:42:45.564Z,29.12
2023-01-19T19:45:15.118Z,29.16
2023-01-19T19:47:44.028Z,29.07
2023-01-19T19:50:11.999Z,29.23
2023-01-19T19:52:42.560Z,29.10
2023-01-19T19:55:10.087Z,29.38
2023-01-19T19:57:37.351Z,29.05
2023-01-19T20:00:05.304Z,29.05
2023-01-19T20:02:36.799Z,29.31
2023-01-19T20:05:04.847Z,29.00
2023-01-19T20:07:32.961Z,29.11
2023-01-19T20:10:02.812Z,29.09
2023-01-19T20:12:41.868Z,29.03
2023-01-19T20:15:09.808Z,28.86
2023-01-19T20:17:36.647Z,28.87
2023-01-19T20:20:04.420Z,29.30
2023-01-19T20:22:33.086Z,29.17
2023-01-19T20:25:01.997Z,29.47
2023-01-19T20:27:28.804Z,29.09
2023-01-19T20:29:58.104Z,28.99
2023-01-19T20:32:25.131Z,28.83
2023-01-19T20:34:53.065Z,29.25
2023-01-19T20:37:20.006Z,29.47
2023-01-19T20:39:46.948Z,29.11
2023-01-19T20:42:17.359Z,28.79
2023-01-19T20:44:44.224Z,29.07
2023-01-19T20:47:11.401Z,29.20
2023-01-19T20:49:38.340Z,29.35
2023-01-19T20:52:08.697Z,29.14
2023-01-19T20:54:38.322Z,29.10
2023-01-19T20:57:07.655Z,29.33
2023-01-19T20:59:37.237Z,29.31
2023-01-19T21:02:06.129Z,29.12
2023-01-19T21:04:33.995Z,29.37
2023-01-19T21:07:01.087Z,29.27
2023-01-19T21:09:31.232Z,29.26
2023-01-19T21:12:00.684Z,29.26
2023-01-19T21:14:30.766Z,29.31
2023-01-19T21:16:58.506Z,29.17
2023-01-19T21:19:27.150Z,29.25
2023-01-19T21:21:55.550Z,29.45
2023-01-19T21:24:22.391Z,29.21
2023-01-19T21:26:50.632Z,29.56
2023-01-19T21:29:18.547Z,29.36
2023-01-19T21:31:45.651Z,29.54
2023-01-19T21:34:14.066Z,29.09
2023-01-19T21:36:40.927Z,29.29
2023-01-19T21:39:09.170Z,29.27
2023-01-19T21:41:36.477Z,29.72
2023-01-19T21:44:04.645Z,29.50
2023-01-19T21:46:33.120Z,29.40
2023-01-19T21:49:03.343Z,29.42
2023-01-19T21:51:33.416Z,29.44
2023-01-19T21:54:02.826Z,29.45
2023-01-19T21:56:30.053Z,29.56
2023-01-19T21:58:59.496Z,29.65
2023-01-19T22:01:26.345Z,29.52
2023-01-19T22:03:54.958Z,29.51
2023-01-19T22:06:21.802Z,29.71
2023-01-19T22:08:48.583Z,29.52
2023-01-19T22:11:17.053Z,29.60
2023-01-19T22:13:43.861Z,29.56
2023-01-19T22:16:12.639Z,29.68
2023-01-19T22:18:43.288Z,29.78
2023-01-19T22:21:11.379Z,29.52
2023-01-19T22:23:38.386Z,29.61
2023-01-19T22:26:05.073Z,29.99
2023-01-19T22:28:31.953Z,29.90
